Date,TemperatureHighF,TemperatureAvgF,TemperatureLowF,DewpointHighF,DewpointAvgF,DewpointLowF,HumidityHigh,HumidityAvg,HumidityLow,PressureMaxIn,PressureMinIn,WindSpeedMaxMPH,WindSpeedAvgMPH,GustSpeedMaxMPH,PrecipitationSumIn
2013-10-1,93.4,88.2,82.6,76.1,73.5,71.7,72,62,52,29.79,29.68,10,3,10,0.00
2013-10-2,96.5,88.9,81.9,78.9,74.0,65.3,74,62,38,29.84,29.74,12,4,12,0.00
2013-10-3,95.0,88.3,81.2,80.3,76.2,70.7,82,68,52,29.86,29.76,10,4,10,0.00
2013-10-4,104.4,90.7,79.6,79.5,70.6,40.7,90,58,12,29.82,29.70,11,5,12,0.00
2013-10-5,105.5,92.2,82.6,78.6,67.5,37.7,68,49,11,29.79,29.70,12,4,12,0.00
2013-10-6,105.3,90.9,81.7,77.9,62.9,37.5,69,44,10,29.78,29.68,16,5,16,0.00
2013-10-7,104.0,90.7,81.4,77.9,66.5,47.5,79,49,17,29.84,29.73,19,6,19,0.00
2013-10-8,94.0,86.6,81.9,76.8,69.6,64.4,77,58,42,29.92,29.82,21,11,21,0.00
2013-10-9,92.5,83.8,76.5,66.5,60.9,52.7,60,47,33,29.94,29.86,22,12,22,0.00
2013-10-10,91.6,80.0,73.8,63.7,58.7,52.7,60,49,37,29.97,29.89,18,7,18,0.00
2013-10-11,92.0,85.1,77.6,62.9,60.1,56.1,54,44,30,29.91,29.86,18,10,19,0.00
2013-10-12,92.7,82.2,73.8,62.0,56.1,43.6,65,43,21,29.89,29.78,18,7,18,0.00
2013-10-13,93.6,81.5,71.8,68.1,58.8,48.4,69,48,25,29.87,29.78,14,4,14,0.00
2013-10-14,92.2,82.3,73.1,68.8,57.1,39.5,63,44,18,29.95,29.84,10,3,10,0.00
2013-10-15,90.2,83.1,74.9,74.0,68.6,61.6,74,62,42,29.97,29.86,10,4,10,0.00
2013-10-16,91.4,84.0,77.0,74.1,68.3,51.8,80,61,29,29.95,29.84,12,4,12,0.00
2013-10-17,94.9,83.8,74.5,70.9,64.0,39.3,78,55,17,29.97,29.88,13,4,13,0.00
2013-10-18,90.2,82.1,73.4,77.1,72.1,56.5,85,72,47,29.98,29.90,10,4,10,0.00
2013-10-19,90.9,83.6,75.4,78.0,75.5,72.1,92,77,59,29.99,29.91,9,3,9,0.00
2013-10-20,95.9,86.3,76.9,74.2,64.3,51.4,76,50,23,30.00,29.90,12,3,12,0.00
2013-10-21,94.5,84.6,77.4,73.2,64.7,58.1,81,54,31,29.94,29.85,24,11,24,0.00
2013-10-22,89.1,82.2,74.9,64.0,57.4,48.9,58,43,30,29.96,29.87,23,12,23,0.00
2013-10-23,90.4,80.1,71.1,65.7,56.2,52.0,61,45,30,30.01,29.90,16,6,17,0.00
2013-10-24,87.5,79.9,71.6,69.0,62.6,57.1,65,56,44,30.03,29.93,11,5,11,0.00
2013-10-25,86.8,81.4,76.3,69.7,65.6,62.6,70,59,48,30.01,29.89,10,4,10,0.00
2013-10-26,85.9,81.1,75.1,71.5,66.2,61.0,73,61,45,29.98,29.87,12,4,12,0.00
2013-10-27,87.8,83.5,78.5,77.5,75.0,71.0,82,76,68,29.99,29.89,10,4,10,0.00
2013-10-28,89.8,84.2,78.8,77.8,74.1,66.5,83,73,48,29.96,29.86,13,4,13,0.00
2013-10-29,87.5,82.9,76.9,75.8,72.4,66.4,86,71,60,29.97,29.86,10,4,10,0.00
2013-10-30,88.0,81.8,76.9,68.7,64.4,57.4,66,56,40,30.03,29.93,13,5,13,0.00
2013-10-31,87.3,81.4,74.3,72.8,68.2,62.1,76,65,55,30.04,29.94,11,4,11,0.00